createdAt,value
2023-01-17T00:00:46.061Z,2.40
2023-01-17T00:03:33.977Z,1.38
2023-01-17T00:06:46.009Z,1.90
2023-01-17T00:09:52.749Z,1.40
2023-01-17T00:12:39.993Z,1.65
2023-01-17T00:15:30.912Z,2.03
2023-01-17T00:18:17.730Z,1.80
2023-01-17T00:21:23.219Z,2.15
2023-01-17T00:24:28.757Z,1.90
2023-01-17T00:27:15.510Z,1.38
2023-01-17T00:30:02.331Z,2.63
2023-01-17T00:32:49.201Z,1.10
2023-01-17T00:35:36.046Z,1.50
2023-01-17T00:38:28.372Z,3.85
2023-01-17T00:41:15.217Z,1.70
2023-01-17T00:44:20.813Z,2.03
2023-01-17T00:47:26.193Z,1.33
2023-01-17T00:50:31.387Z,2.75
2023-01-17T00:53:36.792Z,2.20
2023-01-17T00:56:42.203Z,1.15
2023-01-17T00:59:47.559Z,2.55
2023-01-17T01:02:53.250Z,1.20
2023-01-17T01:06:00.051Z,2.17
2023-01-17T01:09:05.664Z,1.75
2023-01-17T01:12:11.260Z,1.65
2023-01-17T01:15:16.810Z,2.55
2023-01-17T01:18:27.069Z,2.00
2023-01-17T01:24:12.253Z,2.90
2023-01-17T01:27:17.911Z,2.10
2023-01-17T01:30:34.585Z,1.50
2023-01-17T01:33:23.371Z,1.77
2023-01-17T01:36:12.557Z,2.25
2023-01-17T01:39:11.269Z,1.48
2023-01-17T01:45:07.047Z,1.38
2023-01-17T01:48:13.390Z,1.63
2023-01-17T01:51:06.778Z,2.08
2023-01-17T01:54:04.127Z,1.58
2023-01-17T01:56:55.237Z,1.27
2023-01-17T01:59:45.877Z,2.08
2023-01-17T02:02:32.919Z,3.47
2023-01-17T02:05:26.095Z,2.15
2023-01-17T02:08:20.818Z,3.05
2023-01-17T02:11:13.090Z,2.28
2023-01-17T02:14:00.350Z,2.03
2023-01-17T02:17:20.711Z,1.33
2023-01-17T02:20:32.711Z,1.63
2023-01-17T02:24:00.116Z,1.75
2023-01-17T02:27:05.370Z,2.22
2023-01-17T02:30:20.235Z,1.25
2023-01-17T02:33:28.133Z,2.40
2023-01-17T02:36:21.133Z,1.20
2023-01-17T02:39:27.085Z,1.52
2023-01-17T02:42:27.912Z,2.22
2023-01-17T02:45:20.507Z,2.78
2023-01-17T02:48:12.020Z,2.63
2023-01-17T02:51:24.536Z,1.75
2023-01-17T02:54:34.324Z,1.33
2023-01-17T02:57:55.355Z,1.08
2023-01-17T03:00:57.571Z,1.60
2023-01-17T03:03:49.096Z,2.20
2023-01-17T03:06:52.922Z,1.65
2023-01-17T03:09:43.882Z,2.05
2023-01-17T03:12:36.031Z,1.20
2023-01-17T03:15:25.774Z,2.08
2023-01-17T03:18:24.218Z,2.17
2023-01-17T03:21:13.257Z,1.63
2023-01-17T03:24:03.182Z,1.60
2023-01-17T03:26:50.123Z,2.30
2023-01-17T03:29:44.974Z,1.90
2023-01-17T03:32:45.381Z,2.13
2023-01-17T03:35:32.452Z,1.10
2023-01-17T03:38:22.015Z,1.75
2023-01-17T03:41:15.013Z,1.88
2023-01-17T03:44:04.279Z,1.65
2023-01-17T03:49:52.450Z,1.33
2023-01-17T03:52:42.771Z,1.92
2023-01-17T03:55:35.038Z,1.30
2023-01-17T03:58:24.418Z,1.55
2023-01-17T04:01:14.138Z,1.90
2023-01-17T04:04:05.083Z,1.52
2023-01-17T04:06:59.286Z,1.27
2023-01-17T04:09:50.398Z,2.15
2023-01-17T04:12:37.806Z,2.15
2023-01-17T04:15:33.432Z,1.38
2023-01-17T04:18:22.686Z,2.53
2023-01-17T04:24:01.880Z,1.20
2023-01-17T04:26:51.274Z,1.88
2023-01-17T04:29:38.390Z,2.15
2023-01-17T04:32:31.667Z,1.42
2023-01-17T04:35:21.392Z,1.70
2023-01-17T04:38:11.085Z,1.30
2023-01-17T04:40:58.009Z,1.77
2023-01-17T04:43:48.454Z,2.42
2023-01-17T04:46:40.502Z,2.22
2023-01-17T04:49:27.527Z,2.10
2023-01-17T04:52:15.194Z,2.75
2023-01-17T04:55:09.705Z,2.42
2023-01-17T04:58:09.691Z,2.05
2023-01-17T05:01:38.482Z,2.85
2023-01-17T05:04:35.033Z,1.92
2023-01-17T05:08:08.873Z,1.67
2023-01-17T05:10:56.108Z,2.50
2023-01-17T05:13:43.183Z,2.00
2023-01-17T05:16:32.123Z,2.33
2023-01-17T05:19:22.444Z,2.53
2023-01-17T05:22:17.956Z,3.15
2023-01-17T05:25:05.234Z,2.05
2023-01-17T05:27:52.445Z,2.15
2023-01-17T05:30:44.817Z,2.00
2023-01-17T05:33:43.847Z,2.83
2023-01-17T05:37:42.499Z,2.00
2023-01-17T05:40:44.936Z,2.75
2023-01-17T05:43:59.426Z,2.60
2023-01-17T05:59:47.480Z,2.58
2023-01-17T06:02:57.186Z,3.53
2023-01-17T06:05:46.681Z,2.85
2023-01-17T06:09:06.179Z,2.35
2023-01-17T06:12:05.115Z,3.42
2023-01-17T06:15:01.867Z,3.85
2023-01-17T06:17:48.663Z,3.08
2023-01-17T06:20:40.919Z,4.13
2023-01-17T06:23:31.036Z,4.57
2023-01-17T06:26:34.061Z,3.17
2023-01-17T06:29:20.851Z,3.65
2023-01-17T06:32:10.441Z,4.18
2023-01-17T06:34:57.313Z,3.75
2023-01-17T06:37:44.106Z,3.97
2023-01-17T06:40:31.000Z,4.50
2023-01-17T06:43:17.825Z,4.10
2023-01-17T06:46:04.701Z,4.65
2023-01-17T06:48:51.625Z,3.08
2023-01-17T06:51:38.554Z,3.25
2023-01-17T06:54:25.474Z,3.72
2023-01-17T06:57:12.257Z,4.05
2023-01-17T06:59:59.190Z,5.35
2023-01-17T07:02:49.425Z,4.55
2023-01-17T07:05:36.454Z,4.47
2023-01-17T07:08:23.383Z,5.03
2023-01-17T07:11:10.952Z,4.90
2023-01-17T07:13:59.255Z,4.10
2023-01-17T07:16:49.130Z,3.33
2023-01-17T07:19:36.101Z,4.47
2023-01-17T07:22:24.074Z,4.75
2023-01-17T07:25:11.296Z,3.78
2023-01-17T07:27:58.202Z,3.95
2023-01-17T07:30:46.495Z,3.92
2023-01-17T07:33:33.462Z,5.70
2023-01-17T07:36:20.247Z,3.90
2023-01-17T07:39:07.398Z,3.15
2023-01-17T07:41:54.632Z,4.57
2023-01-17T07:44:44.110Z,3.35
2023-01-17T07:47:31.472Z,3.97
2023-01-17T07:50:18.407Z,3.13
2023-01-17T07:53:05.628Z,4.20
2023-01-17T07:55:55.437Z,3.28
2023-01-17T07:58:43.080Z,4.55
2023-01-17T08:01:29.991Z,4.68
2023-01-17T08:04:16.865Z,2.63
2023-01-17T08:07:03.669Z,4.57
2023-01-17T08:09:50.683Z,4.78
2023-01-17T08:12:38.541Z,3.55
2023-01-17T08:15:26.848Z,4.32
2023-01-17T08:18:16.441Z,3.20
2023-01-17T08:21:04.162Z,3.90
2023-01-17T08:23:52.186Z,3.70
2023-01-17T08:27:06.710Z,4.93
2023-01-17T08:29:53.793Z,3.60
2023-01-17T08:32:44.372Z,4.07
2023-01-17T08:35:36.046Z,4.50
2023-01-17T08:38:24.032Z,5.68
2023-01-17T08:41:13.210Z,4.25
2023-01-17T08:44:00.197Z,3.65
2023-01-17T08:46:49.062Z,4.20
2023-01-17T08:49:38.933Z,4.38
2023-01-17T08:52:26.406Z,4.50
2023-01-17T08:55:13.389Z,4.05
2023-01-17T08:58:02.220Z,3.97
2023-01-17T09:00:49.125Z,3.75
2023-01-17T09:03:40.908Z,4.18
2023-01-17T09:06:33.553Z,2.92
2023-01-17T09:09:20.573Z,4.40
2023-01-17T09:12:07.664Z,6.55
2023-01-17T09:14:54.654Z,4.45
2023-01-17T09:17:45.512Z,4.03
2023-01-17T09:20:35.330Z,4.57
2023-01-17T09:23:22.764Z,4.95
2023-01-17T09:26:18.006Z,4.40
2023-01-17T09:29:08.568Z,5.28
2023-01-17T09:31:55.411Z,5.85
2023-01-17T09:34:42.231Z,4.70
2023-01-17T09:37:29.908Z,5.55
2023-01-17T09:40:23.187Z,5.45
2023-01-17T09:43:25.304Z,6.05
2023-01-17T09:46:22.690Z,6.55
2023-01-17T09:49:28.353Z,4.18
2023-01-17T09:52:18.426Z,5.32
2023-01-17T09:55:07.915Z,4.72
2023-01-17T09:58:09.619Z,5.85
2023-01-17T10:01:16.181Z,4.60
2023-01-17T10:04:38.149Z,4.60
2023-01-17T10:07:52.145Z,4.50
2023-01-17T10:10:46.202Z,4.93
2023-01-17T10:13:57.096Z,5.10
2023-01-17T10:16:47.282Z,5.55
2023-01-17T10:20:12.476Z,4.65
2023-01-17T10:23:25.316Z,5.18
2023-01-17T10:26:23.438Z,4.90
2023-01-17T10:29:15.281Z,5.38
2023-01-17T10:32:03.073Z,4.75
2023-01-17T10:35:03.602Z,4.57
2023-01-17T10:37:55.996Z,5.68
2023-01-17T10:40:50.241Z,5.15
2023-01-17T10:43:40.430Z,4.95
2023-01-17T10:46:48.454Z,5.22
2023-01-17T10:49:37.420Z,5.28
2023-01-17T10:53:04.308Z,6.60
2023-01-17T10:55:54.232Z,4.57
2023-01-17T10:58:41.090Z,4.72
2023-01-17T11:01:28.203Z,5.13
2023-01-17T11:04:36.897Z,4.43
2023-01-17T11:07:28.710Z,4.40
2023-01-17T11:10:55.205Z,3.88
2023-01-17T11:13:46.067Z,4.90
2023-01-17T11:16:32.949Z,5.65
2023-01-17T11:19:30.477Z,6.03
2023-01-17T11:22:20.574Z,3.65
2023-01-17T11:25:16.921Z,5.10
2023-01-17T11:28:18.886Z,5.05
2023-01-17T11:31:23.045Z,5.18
2023-01-17T11:34:19.239Z,4.07
2023-01-17T11:37:17.166Z,4.80
2023-01-17T11:40:28.473Z,6.45
2023-01-17T11:43:22.103Z,4.05
2023-01-17T11:46:20.352Z,4.70
2023-01-17T11:49:22.425Z,4.37
2023-01-17T11:52:10.662Z,4.53
2023-01-17T11:54:57.543Z,5.32
2023-01-17T11:57:52.569Z,4.93
2023-01-17T12:00:45.933Z,5.20
2023-01-17T12:03:48.513Z,4.82
2023-01-17T12:33:38.970Z,3.83
2023-01-17T12:45:57.112Z,4.22
2023-01-17T12:57:54.637Z,4.50
2023-01-17T14:50:33.644Z,3.85
2023-01-17T16:08:06.558Z,5.28
2023-01-17T16:11:02.223Z,7.50
2023-01-17T16:13:52.497Z,7.70
2023-01-17T16:16:39.460Z,6.72
2023-01-17T16:19:26.922Z,7.38
2023-01-17T16:22:13.834Z,8.27
2023-01-17T16:25:01.294Z,7.70
2023-01-17T16:27:48.912Z,7.07
2023-01-17T16:30:36.300Z,7.25
2023-01-17T16:33:23.085Z,7.05
2023-01-17T16:36:14.903Z,6.65
2023-01-17T16:39:01.729Z,6.60
2023-01-17T16:41:50.075Z,6.10
2023-01-17T16:44:37.179Z,6.83
2023-01-17T16:47:24.248Z,8.95
2023-01-17T16:50:13.518Z,8.20
2023-01-17T16:55:49.873Z,7.28
2023-01-17T16:58:38.814Z,7.53
2023-01-17T17:01:25.720Z,8.65
2023-01-17T17:04:13.092Z,8.38
2023-01-17T17:06:59.967Z,9.40
2023-01-17T17:09:47.575Z,10.75
2023-01-17T17:12:37.289Z,10.10
2023-01-17T17:15:24.055Z,9.65
2023-01-17T17:18:15.433Z,9.75
2023-01-17T17:21:04.863Z,9.68
2023-01-17T17:23:58.850Z,9.93
2023-01-17T17:26:48.822Z,11.50
2023-01-17T17:29:36.126Z,8.90
2023-01-17T17:36:43.098Z,9.05
2023-01-17T17:39:33.340Z,8.88
2023-01-17T17:42:29.740Z,7.70
2023-01-17T17:45:34.301Z,9.13
2023-01-17T17:48:34.119Z,8.77
2023-01-17T17:51:59.015Z,7.93
2023-01-17T17:54:51.947Z,8.65
2023-01-17T17:57:46.634Z,8.65
2023-01-17T18:05:24.766Z,7.85
2023-01-17T18:09:30.076Z,8.40
2023-01-17T18:12:24.371Z,8.93
2023-01-17T18:15:18.449Z,7.90
2023-01-17T18:18:13.827Z,7.18
2023-01-17T18:21:35.550Z,7.70
2023-01-17T18:24:29.489Z,9.32
2023-01-17T18:31:08.959Z,7.63
2023-01-17T18:42:24.766Z,8.02
2023-01-17T18:45:35.110Z,6.03
2023-01-17T18:48:44.992Z,7.32
2023-01-17T18:51:58.673Z,7.22
2023-01-17T18:54:55.325Z,7.45
2023-01-17T18:57:58.570Z,8.05
2023-01-17T19:01:03.439Z,8.00
2023-01-17T19:07:06.132Z,8.65
2023-01-17T19:14:06.493Z,8.27
2023-01-17T19:17:11.471Z,9.25
2023-01-17T19:20:01.192Z,8.38
2023-01-17T19:23:18.235Z,10.10
2023-01-17T19:29:55.997Z,9.13
2023-01-17T19:33:31.620Z,8.02
2023-01-17T19:36:39.703Z,8.52
2023-01-17T19:39:35.404Z,9.75
2023-01-17T20:05:02.840Z,8.25
2023-01-17T20:19:41.194Z,8.73
2023-01-17T20:23:14.807Z,8.50
2023-01-17T20:30:14.601Z,8.85
2023-01-17T20:33:58.852Z,8.13
2023-01-17T20:37:31.934Z,8.68
2023-01-17T20:40:55.257Z,7.85
2023-01-17T20:47:37.486Z,8.93
2023-01-17T20:54:54.023Z,7.57
2023-01-17T21:02:15.637Z,9.07
2023-01-17T21:05:17.336Z,9.48
2023-01-17T21:08:22.733Z,9.63
2023-01-17T21:11:12.361Z,9.85
2023-01-17T21:14:01.784Z,10.43
2023-01-17T21:17:00.167Z,9.52
2023-01-17T21:19:47.318Z,9.25
2023-01-17T21:22:34.339Z,9.20
2023-01-17T21:25:31.900Z,9.02
2023-01-17T21:28:23.024Z,8.55
2023-01-17T21:31:23.444Z,10.07
2023-01-17T21:34:11.601Z,8.68
2023-01-17T21:37:04.142Z,8.48
2023-01-17T21:39:56.500Z,9.27
2023-01-17T21:42:49.741Z,8.95
2023-01-17T21:45:44.310Z,9.07
2023-01-17T21:48:35.143Z,10.07
2023-01-17T21:51:45.399Z,10.27
2023-01-17T21:54:54.701Z,10.15
2023-01-17T21:58:02.167Z,10.07
2023-01-17T22:00:49.439Z,10.85
2023-01-17T22:03:37.118Z,10.07
2023-01-17T22:06:29.534Z,9.88
2023-01-17T22:09:21.920Z,9.27
2023-01-17T22:12:14.200Z,10.70
2023-01-17T22:15:01.040Z,9.50
2023-01-17T22:17:47.895Z,10.50
2023-01-17T22:20:48.280Z,9.75
2023-01-17T22:23:37.596Z,9.18
2023-01-17T22:29:12.576Z,9.60
2023-01-17T22:32:04.011Z,9.70
2023-01-17T22:34:58.616Z,9.50
2023-01-17T22:37:48.143Z,10.30
2023-01-17T22:40:40.834Z,10.00
2023-01-17T22:43:43.684Z,9.65
2023-01-17T22:46:39.427Z,9.60
2023-01-17T22:49:32.073Z,10.00
2023-01-17T22:52:24.782Z,9.68
2023-01-17T22:55:12.342Z,8.45
2023-01-17T22:58:04.865Z,8.40
2023-01-17T23:00:53.803Z,8.68
2023-01-17T23:03:41.238Z,8.90
2023-01-17T23:06:35.969Z,8.85
2023-01-17T23:09:25.221Z,9.73
2023-01-17T23:15:21.264Z,10.07
2023-01-17T23:21:17.211Z,9.18
2023-01-17T23:24:10.230Z,7.50
2023-01-17T23:27:15.782Z,7.65
2023-01-17T23:30:13.591Z,9.38
2023-01-17T23:33:03.585Z,8.82
2023-01-17T23:35:50.558Z,8.15
2023-01-17T23:38:46.788Z,9.82
2023-01-17T23:41:57.241Z,10.63
2023-01-17T23:44:44.050Z,9.73
2023-01-17T23:47:33.393Z,8.85
2023-01-17T23:53:13.637Z,8.43
2023-01-17T23:56:05.955Z,8.38
2023-01-17T23:58:52.956Z,8.10
